Terminal Aerodrome Forecast
Issued by NWS Bismarck, ND

Home | Current Version | Previous Version | Graphics & Text | Print | Product List | Glossary On
Versions: 1 2 3 4 5 6 7 8 9 10 11 12 13 14 15 16 17
383
FTUS43 KBIS 230415 AAA
TAFISN
TAF AMD
KISN 230415Z 2304/2324 31020G28KT P6SM VCSH BKN018 OVC030
     FM230600 32017G25KT P6SM SCT025 OVC030
     FM231300 31022G33KT P6SM FEW045=

USA.gov is the U.S. government's official web portal to all federal, state and local government web resources and services.